This is the latest recevied weather packets stored in our database for station/object PP5EO-15. If no packets are shown the sender has not sent any weather packets the latest 10 day(s).
| Time | Temp. | Humidity | Pressure | Rain* | Wind** | Luminosity | Snow |
|---|---|---|---|---|---|---|---|
| 1777050312 | 41.67° C | 23% | 1013.2 hPa | - | - | - | - |
| 1777049718 | 40° C | 24% | 1013.3 hPa | - | - | - | - |
| 1777049122 | 41.67° C | 22% | 1013.5 hPa | - | - | - | - |
| 1777048527 | 44.44° C | 19% | 1013.7 hPa | - | - | - | - |
| 1777047932 | 43.89° C | 20% | 1013.9 hPa | - | - | - | - |
| 1777047337 | 43.89° C | 19% | 1014 hPa | - | - | - | - |
| 1777046742 | 43.33° C | 19% | 1014.2 hPa | - | - | - | - |
| 1777046147 | 43.89° C | 19% | 1014.4 hPa | - | - | - | - |
| 1777044957 | 43.33° C | 21% | 1014.7 hPa | - | - | - | - |
| 1777044362 | 42.78° C | 22% | 1015 hPa | - | - | - | - |
| 1777043767 | 41.11° C | 23% | 1015.3 hPa | - | - | - | - |
| 1777043175 | 40° C | 25% | 1015.6 hPa | - | - | - | - |
| 1777042577 | 40° C | 25% | 1015.9 hPa | - | - | - | - |
| 1777041982 | 41.67° C | 23% | 1016.1 hPa | - | - | - | - |
| 1777041388 | 43.89° C | 20% | 1016.4 hPa | - | - | - | - |
| 1777040792 | 44.44° C | 20% | 1016.7 hPa | - | - | - | - |
| 1777040197 | 43.89° C | 21% | 1017 hPa | - | - | - | - |
| 1777039886 | 43.33° C | 22% | 1017.2 hPa | - | - | - | - |
| 1777039007 | 43.33° C | 22% | 1017.4 hPa | - | - | - | - |
| 1777038412 | 43.33° C | 23% | 1017.5 hPa | - | - | - | - |
| 1777037817 | 42.78° C | 24% | 1017.7 hPa | - | - | - | - |
| 1777037223 | 42.22° C | 24% | 1017.9 hPa | - | - | - | - |
| 1777036627 | 41.67° C | 25% | 1018 hPa | - | - | - | - |
| 1777036032 | 41.11° C | 27% | 1018.1 hPa | - | - | - | - |
| 1777035437 | 40.56° C | 27% | 1018.1 hPa | - | - | - | - |
* Rain since midnight (hover to see other rain measurements)
** Current wind speed in m/s (hover to see current wind gust speed)